Time;durP1;ratioP1;P1;durP2;ratioP2;P2;SDS_P1;SDS_P2;PMS_P1;PMS_P2;Temp;Humidity;BMP_temperature;BMP_pressure;BME280_temperature;BME280_humidity;BME280_pressure;Samples;Min_cycle;Max_cycle;Signal;HPM_P1;HPM_P2
2024/01/05 00:01:57;;;;;;;7.78;1.83;;;;;;;6.54;100.00;99837.81;4987135;28;20029;-95
2024/01/05 00:04:33;;;;;;;;;;;;;;;;;;;;;
2024/01/05 00:06:59;;;;;;;7.68;1.90;;;;;;;6.57;100.00;99829.97;4985602;28;20048;-93
2024/01/05 00:09:33;;;;;;;6.82;1.67;;;;;;;6.59;100.00;99824.75;4983124;28;20129;-96
2024/01/05 00:11:58;;;;;;;7.13;1.70;;;;;;;6.56;100.00;99819.66;4983847;28;20030;-94
2024/01/05 00:14:26;;;;;;;7.95;1.90;;;;;;;6.57;100.00;99818.78;4983662;28;20045;-96
2024/01/05 00:16:52;;;;;;;6.00;1.67;;;;;;;6.55;100.00;99821.41;4977223;28;20038;-94
2024/01/05 00:19:18;;;;;;;5.80;1.42;;;;;;;6.55;100.00;99813.66;4984977;28;20082;-95
2024/01/05 00:21:43;;;;;;;6.00;1.60;;;;;;;6.56;100.00;99806.75;4981729;28;20026;-95
2024/01/05 00:24:08;;;;;;;7.78;1.70;;;;;;;6.53;100.00;99811.09;4983223;28;20320;-94
2024/01/05 00:26:39;;;;;;;5.63;1.50;;;;;;;6.53;100.00;99811.09;4988006;28;20030;-95
2024/01/05 00:29:05;;;;;;;8.88;1.52;;;;;;;6.56;100.00;99810.19;4973905;28;20026;-95
2024/01/05 00:31:30;;;;;;;4.93;1.20;;;;;;;6.56;100.00;99793.81;4981838;28;20102;-93
2024/01/05 00:33:56;;;;;;;4.18;1.38;;;;;;;6.60;100.00;99805.78;4980633;28;20109;-95
2024/01/05 00:36:21;;;;;;;10.00;1.33;;;;;;;6.63;100.00;99800.53;4959024;28;20034;-94
2024/01/05 00:38:48;;;;;;;5.55;1.50;;;;;;;6.65;100.00;99793.59;4950133;28;20458;-96
2024/01/05 00:41:14;;;;;;;5.03;1.40;;;;;;;6.66;100.00;99790.13;4960564;28;20048;-94
2024/01/05 00:43:39;;;;;;;9.88;1.60;;;;;;;6.68;100.00;99783.16;4963665;28;20456;-95
2024/01/05 00:46:04;;;;;;;6.97;1.50;;;;;;;6.69;100.00;99774.50;4962412;28;20060;-95
2024/01/05 00:48:30;;;;;;;5.40;1.52;;;;;;;6.72;100.00;99779.59;4964878;28;20081;-95
2024/01/05 00:50:55;;;;;;;4.68;1.40;;;;;;;6.75;100.00;99779.53;4957761;28;20026;-94
2024/01/05 00:53:21;;;;;;;4.45;1.30;;;;;;;6.77;100.00;99780.34;4961934;28;20448;-95
2024/01/05 00:55:46;;;;;;;4.88;1.30;;;;;;;6.81;100.00;99783.69;4963103;28;20035;-94
2024/01/05 00:58:12;;;;;;;6.93;1.60;;;;;;;6.84;100.00;99779.25;4957704;28;20383;-93
2024/01/05 01:00:37;;;;;;;6.03;1.30;;;;;;;6.86;100.00;99768.03;4957999;28;20031;-95
2024/01/05 01:03:03;;;;;;;5.28;1.52;;;;;;;6.89;100.00;99770.53;4960313;28;20118;-93
2024/01/05 01:05:28;;;;;;;7.03;1.40;;;;;;;6.91;100.00;99771.34;4977646;28;20047;-93
2024/01/05 01:07:54;;;;;;;5.88;1.90;;;;;;;6.92;100.00;99760.13;4957479;28;20105;-95
2024/01/05 01:10:19;;;;;;;5.25;1.20;;;;;;;6.95;100.00;99762.63;4960679;28;20589;-93
2024/01/05 01:12:44;;;;;;;6.82;1.60;;;;;;;6.94;100.00;99759.16;4960131;28;20365;-93
2024/01/05 01:15:10;;;;;;;7.20;1.35;;;;;;;6.96;100.00;99761.72;4960458;28;20153;-94
2024/01/05 01:17:35;;;;;;;5.38;1.30;;;;;;;6.96;100.00;99751.38;4955188;28;20741;-96
2024/01/05 01:20:01;;;;;;;6.90;1.50;;;;;;;6.98;100.00;99747.03;4977290;28;20110;-94
2024/01/05 01:22:26;;;;;;;5.75;1.10;;;;;;;7.00;100.00;99753.00;4962508;28;20023;-94
2024/01/05 01:24:52;;;;;;;6.78;1.42;;;;;;;7.01;100.00;99754.66;4979526;28;20089;-95
2024/01/05 01:27:17;;;;;;;5.47;1.23;;;;;;;7.02;100.00;99748.59;4960885;28;20514;-95
2024/01/05 01:29:43;;;;;;;3.72;0.93;;;;;;;7.04;100.00;99754.59;4963470;28;20037;-94
2024/01/05 01:32:11;;;;;;;5.20;1.10;;;;;;;7.04;100.00;99748.59;4976620;28;20055;-96
2024/01/05 01:34:40;;;;;;;8.02;1.27;;;;;;;7.04;100.00;99749.41;4979357;28;20030;-93
2024/01/05 01:37:05;;;;;;;3.85;1.20;;;;;;;7.06;100.00;99744.22;4982363;28;20049;-94
2024/01/05 01:39:31;;;;;;;5.80;1.20;;;;;;;7.05;100.00;99745.94;4983675;28;20057;-94
2024/01/05 01:41:57;;;;;;;6.30;1.15;;;;;;;7.05;100.00;99743.34;4983741;28;20026;-94
2024/01/05 01:44:22;;;;;;;6.97;1.30;;;;;;;7.06;100.00;99737.28;4980358;28;20109;-94
2024/01/05 01:46:50;;;;;;;5.07;1.05;;;;;;;7.06;100.00;99734.69;4987046;28;20025;-95
2024/01/05 01:49:16;;;;;;;6.25;1.30;;;;;;;7.05;100.00;99727.84;5004637;28;20044;-94
2024/01/05 01:51:42;;;;;;;4.10;1.20;;;;;;;7.05;100.00;99725.25;5003373;28;20517;-94
2024/01/05 01:54:07;;;;;;;5.78;1.42;;;;;;;7.04;100.00;99723.56;4980786;28;20034;-94
2024/01/05 01:56:35;;;;;;;5.80;1.45;;;;;;;7.05;100.00;99719.25;4983900;28;20034;-94
2024/01/05 01:59:02;;;;;;;4.53;1.13;;;;;;;7.03;100.00;99708.94;4983836;28;20112;-94
2024/01/05 02:01:27;;;;;;;5.07;1.80;;;;;;;7.04;100.00;99713.22;4984230;28;20062;-95
2024/01/05 02:03:53;;;;;;;6.32;1.40;;;;;;;7.03;100.00;99710.69;5001452;28;20848;-94
2024/01/05 02:06:20;;;;;;;4.05;0.98;;;;;;;7.03;100.00;99695.16;4980757;28;20052;-94
2024/01/05 02:08:45;;;;;;;6.68;1.30;;;;;;;7.04;100.00;99689.94;4985878;28;20112;-94
2024/01/05 02:11:12;;;;;;;4.45;1.33;;;;;;;7.04;100.00;99694.28;5005398;28;20117;-94
2024/01/05 02:13:38;;;;;;;4.20;1.10;;;;;;;7.02;100.00;99691.72;4980842;28;20072;-94
2024/01/05 02:16:04;;;;;;;3.42;1.08;;;;;;;7.02;100.00;99689.13;4980767;28;20483;-95
2024/01/05 02:18:29;;;;;;;6.10;1.45;;;;;;;7.04;100.00;99682.19;5003121;28;20026;-94
2024/01/05 02:20:56;;;;;;;6.45;1.15;;;;;;;7.03;100.00;99682.22;5002383;28;20103;-94
2024/01/05 02:23:25;;;;;;;3.35;1.08;;;;;;;7.00;100.00;99675.44;4982792;28;20503;-94
2024/01/05 02:25:51;;;;;;;5.97;1.55;;;;;;;7.01;100.00;99677.09;4985956;28;20034;-94
2024/01/05 02:28:18;;;;;;;4.88;1.40;;;;;;;7.01;100.00;99669.34;4985332;28;20085;-94
2024/01/05 02:30:44;;;;;;;6.82;1.08;;;;;;;6.98;100.00;99661.69;4998697;28;21535;-93
2024/01/05 02:33:09;;;;;;;6.30;0.95;;;;;;;6.97;100.00;99654.81;5000511;28;20027;-94
2024/01/05 02:35:34;;;;;;;5.47;1.05;;;;;;;6.97;100.00;99639.31;4982512;28;20056;-95
2024/01/05 02:38:01;;;;;;;5.95;1.20;;;;;;;6.94;100.00;99639.41;4984005;28;20107;-95
2024/01/05 02:40:26;;;;;;;3.70;1.00;;;;;;;6.92;100.00;99643.75;4983953;28;20034;-95
2024/01/05 02:42:52;;;;;;;4.57;1.30;;;;;;;6.90;100.00;99637.78;4979978;28;20042;-94
2024/01/05 02:45:20;;;;;;;5.78;1.20;;;;;;;6.88;100.00;99636.97;4984005;28;20116;-96
2024/01/05 02:47:54;;;;;;;4.18;1.00;;;;;;;6.87;100.00;99627.53;4983346;28;20077;-94
2024/01/05 02:50:20;;;;;;;4.30;1.13;;;;;;;6.83;100.00;99625.03;4999077;28;20174;-95
2024/01/05 02:52:45;;;;;;;3.50;1.05;;;;;;;6.82;100.00;99630.25;4983986;28;20072;-95
2024/01/05 02:55:12;;;;;;;5.35;1.10;;;;;;;6.80;100.00;99619.97;4984724;28;20356;-95
2024/01/05 02:57:38;;;;;;;5.55;1.10;;;;;;;6.78;100.00;99618.31;4984507;28;20464;-94
2024/01/05 03:00:04;;;;;;;4.65;1.10;;;;;;;6.77;100.00;99617.47;4980983;28;20537;-95
2024/01/05 03:02:30;;;;;;;5.00;1.08;;;;;;;6.77;100.00;99617.47;4981243;28;20041;-93
2024/01/05 03:04:56;;;;;;;5.32;1.00;;;;;;;6.76;100.00;99615.78;4996779;28;20058;-95
2024/01/05 03:07:21;;;;;;;7.03;1.27;;;;;;;6.76;100.00;99607.16;4984546;28;20042;-95
2024/01/05 03:09:47;;;;;;;3.70;1.10;;;;;;;6.78;100.00;99607.97;4999869;28;20030;-95
2024/01/05 03:12:12;;;;;;;3.63;1.25;;;;;;;6.79;100.00;99605.38;4978253;28;20045;-95
2024/01/05 03:14:38;;;;;;;4.45;1.00;;;;;;;6.78;100.00;99598.50;4984127;28;20030;-93
2024/01/05 03:17:04;;;;;;;3.78;1.10;;;;;;;6.79;100.00;99597.59;4980242;28;20021;-96
2024/01/05 03:19:29;;;;;;;3.58;1.13;;;;;;;6.79;100.00;99595.03;4976295;28;20301;-95
2024/01/05 03:21:57;;;;;;;3.08;1.00;;;;;;;6.79;100.00;99589.84;4982390;28;20075;-94
2024/01/05 03:24:23;;;;;;;4.53;1.10;;;;;;;6.78;100.00;99588.16;4983862;28;20065;-95
2024/01/05 03:26:48;;;;;;;4.90;1.20;;;;;;;6.80;100.00;99578.63;4982391;28;20061;-95
2024/01/05 03:29:14;;;;;;;3.10;1.08;;;;;;;6.80;100.00;99581.22;4994174;28;20030;-95
2024/01/05 03:31:39;;;;;;;3.47;1.05;;;;;;;6.81;100.00;99566.53;4978716;28;20556;-93
2024/01/05 03:34:05;;;;;;;3.78;1.10;;;;;;;6.80;100.00;99576.03;5002032;28;20471;-93
2024/01/05 03:36:30;;;;;;;5.10;1.20;;;;;;;6.80;100.00;99570.88;4978139;28;20041;-94
2024/01/05 03:38:55;;;;;;;3.65;0.93;;;;;;;6.81;100.00;99566.53;4975019;28;20097;-94
2024/01/05 03:41:21;;;;;;;1.70;0.80;;;;;;;6.81;100.00;99566.53;4977918;28;20041;-95
2024/01/05 03:43:46;;;;;;;2.35;0.95;;;;;;;6.82;100.00;99573.41;4996268;28;20089;-95
2024/01/05 03:46:12;;;;;;;2.10;0.90;;;;;;;6.81;100.00;99558.78;4986845;28;20140;-94
2024/01/05 03:48:38;;;;;;;4.45;0.90;;;;;;;6.82;100.00;99557.88;4983318;28;20026;-94
2024/01/05 03:51:04;;;;;;;5.03;1.10;;;;;;;6.84;100.00;99558.69;4996195;28;20443;-94
2024/01/05 03:53:29;;;;;;;3.67;0.80;;;;;;;6.84;100.00;99550.94;4995504;28;20391;-95
2024/01/05 03:55:58;;;;;;;3.00;1.00;;;;;;;6.84;100.00;99549.19;4984247;28;20402;-94
2024/01/05 03:58:24;;;;;;;4.90;1.00;;;;;;;6.83;100.00;99534.56;4981065;28;20041;-95
2024/01/05 04:00:50;;;;;;;2.72;0.90;;;;;;;6.81;100.00;99533.78;4971717;28;20038;-93
2024/01/05 04:03:17;;;;;;;2.50;1.08;;;;;;;6.82;100.00;99530.31;4978392;28;20113;-94
2024/01/05 04:05:43;;;;;;;3.97;1.00;;;;;;;6.81;100.00;99525.16;4980887;28;20022;-93
2024/01/05 04:08:08;;;;;;;5.13;1.15;;;;;;;6.78;100.00;99526.13;4992216;28;20037;-95
2024/01/05 04:10:33;;;;;;;4.88;0.95;;;;;;;6.79;100.00;99522.66;4980054;28;20557;-95
2024/01/05 04:12:59;;;;;;;2.83;0.85;;;;;;;6.77;100.00;99513.22;4977428;28;20068;-94
2024/01/05 04:15:24;;;;;;;4.43;0.95;;;;;;;6.76;100.00;99514.13;4983059;28;20030;-95
2024/01/05 04:17:49;;;;;;;2.50;1.10;;;;;;;6.77;100.00;99514.09;4977433;28;20057;-94
2024/01/05 04:20:15;;;;;;;3.63;1.10;;;;;;;6.76;100.00;99506.38;4981718;28;20149;-95
2024/01/05 04:22:40;;;;;;;1.95;0.88;;;;;;;6.74;100.00;99506.44;4982967;28;20037;-95
2024/01/05 04:25:07;;;;;;;2.83;0.90;;;;;;;6.71;100.00;99503.94;4979794;28;20046;-96
2024/01/05 04:27:32;;;;;;;3.85;1.38;;;;;;;6.69;100.00;99500.56;4980734;28;20038;-96
2024/01/05 04:29:58;;;;;;;2.70;0.90;;;;;;;6.67;100.00;99494.56;5000352;28;20529;-96
2024/01/05 04:32:23;;;;;;;4.47;1.00;;;;;;;6.67;100.00;99492.00;4981574;28;20046;-95
2024/01/05 04:34:49;;;;;;;2.53;0.80;;;;;;;6.68;100.00;99493.69;4979567;28;20133;-94
2024/01/05 04:37:14;;;;;;;3.08;0.85;;;;;;;6.66;100.00;99485.16;4981074;28;20488;-95
2024/01/05 04:39:40;;;;;;;2.58;0.90;;;;;;;6.66;100.00;99490.34;4980045;28;20129;-95
2024/01/05 04:42:05;;;;;;;2.42;0.82;;;;;;;6.63;100.00;99480.91;5000508;28;20102;-95
2024/01/05 04:44:30;;;;;;;4.40;1.00;;;;;;;6.64;100.00;99476.59;4999188;28;20061;-96
2024/01/05 04:46:56;;;;;;;2.63;0.80;;;;;;;6.63;100.00;99474.91;4995949;28;20502;-95
2024/01/05 04:49:21;;;;;;;5.55;1.00;;;;;;;6.62;100.00;99460.31;4996180;28;20022;-95
2024/01/05 04:51:47;;;;;;;2.88;0.85;;;;;;;6.60;100.00;99462.91;4980963;28;20032;-96
2024/01/05 04:54:12;;;;;;;3.38;1.15;;;;;;;6.55;100.00;99456.22;4991297;28;20120;-94
2024/01/05 04:56:37;;;;;;;3.72;0.90;;;;;;;6.53;100.00;99451.09;4979005;28;20104;-95
2024/01/05 04:59:03;;;;;;;4.35;0.98;;;;;;;6.50;100.00;99443.44;4977096;28;20026;-94
2024/01/05 05:01:28;;;;;;;3.78;0.80;;;;;;;6.52;100.00;99446.81;4983078;28;20022;-94
2024/01/05 05:03:54;;;;;;;3.08;0.90;;;;;;;6.53;100.00;99444.19;4981775;28;20030;-95
2024/01/05 05:06:19;;;;;;;3.45;0.90;;;;;;;6.54;100.00;99445.03;5000387;28;20050;-95
2024/01/05 05:08:44;;;;;;;3.20;0.80;;;;;;;6.55;100.00;99440.72;4997618;28;20121;-95
2024/01/05 05:11:10;;;;;;;3.75;0.90;;;;;;;6.55;100.00;99431.22;4998916;28;20476;-94
2024/01/05 05:13:35;;;;;;;3.67;0.80;;;;;;;6.58;100.00;99438.03;4988135;28;20117;-95
2024/01/05 05:16:01;;;;;;;2.63;0.80;;;;;;;6.57;100.00;99433.75;4986295;28;20029;-94
2024/01/05 05:18:26;;;;;;;3.15;1.08;;;;;;;6.55;100.00;99425.22;5004722;28;20026;-94
2024/01/05 05:20:52;;;;;;;5.80;1.42;;;;;;;6.52;100.00;99421.00;4982566;28;20076;-94
2024/01/05 05:23:17;;;;;;;3.53;1.20;;;;;;;6.50;100.00;99418.44;4988172;28;20037;-94
2024/01/05 05:25:42;;;;;;;3.88;0.82;;;;;;;6.51;100.00;99420.13;4978730;28;20037;-94
2024/01/05 05:28:08;;;;;;;1.95;0.75;;;;;;;6.50;100.00;99415.84;5001819;28;20026;-94
2024/01/05 05:30:33;;;;;;;4.35;0.80;;;;;;;6.53;100.00;99418.34;4984067;28;20526;-94
2024/01/05 05:32:59;;;;;;;3.47;1.00;;;;;;;6.55;100.00;99425.22;5002262;28;20022;-94
2024/01/05 05:35:24;;;;;;;3.42;1.13;;;;;;;6.57;100.00;99428.59;5000803;28;20030;-94
2024/01/05 05:37:50;;;;;;;3.63;0.90;;;;;;;6.58;100.00;99430.28;5000118;28;20089;-94
2024/01/05 05:40:15;;;;;;;4.43;1.00;;;;;;;6.61;100.00;99435.34;4982615;28;20018;-94
2024/01/05 05:42:41;;;;;;;4.25;1.00;;;;;;;6.61;100.00;99427.59;4993656;28;20030;-95
2024/01/05 05:45:07;;;;;;;2.85;0.80;;;;;;;6.62;100.00;99416.38;4998206;28;20409;-94
2024/01/05 05:47:32;;;;;;;2.13;0.80;;;;;;;6.61;100.00;99415.50;4983546;28;20037;-94
2024/01/05 05:49:58;;;;;;;4.38;0.80;;;;;;;6.63;100.00;99418.06;4999850;28;20034;-95
2024/01/05 05:52:23;;;;;;;3.35;0.93;;;;;;;6.66;100.00;99417.97;4983892;28;20475;-94
2024/01/05 05:54:48;;;;;;;3.83;0.90;;;;;;;6.66;100.00;99428.31;4986177;28;20026;-94
2024/01/05 05:57:14;;;;;;;4.25;1.00;;;;;;;6.67;100.00;99425.66;4979811;28;20596;-95
2024/01/05 05:59:39;;;;;;;2.70;0.90;;;;;;;6.70;100.00;99432.47;4977198;28;20022;-94
2024/01/05 06:02:04;;;;;;;3.83;0.80;;;;;;;6.71;100.00;99421.22;4974587;28;20575;-96
2024/01/05 06:04:30;;;;;;;2.75;0.90;;;;;;;6.72;100.00;99422.91;4998082;28;20022;-94
2024/01/05 06:06:56;;;;;;;3.30;0.90;;;;;;;6.74;100.00;99418.56;4972707;28;20015;-96
2024/01/05 06:09:21;;;;;;;3.20;0.90;;;;;;;6.76;100.00;99419.34;4983261;28;20049;-95
2024/01/05 06:11:47;;;;;;;5.63;1.05;;;;;;;6.82;100.00;99423.47;5005099;28;20513;-92
2024/01/05 06:14:12;;;;;;;3.50;0.93;;;;;;;6.82;100.00;99424.31;5001492;28;20033;-94
2024/01/05 06:16:38;;;;;;;2.67;1.05;;;;;;;6.83;100.00;99423.41;4982702;28;20044;-95
2024/01/05 06:19:03;;;;;;;2.97;0.82;;;;;;;6.87;100.00;99428.47;4982256;28;20406;-94
2024/01/05 06:21:29;;;;;;;1.48;0.80;;;;;;;6.89;100.00;99427.56;4982687;28;20057;-93
2024/01/05 06:23:54;;;;;;;4.32;0.93;;;;;;;6.91;100.00;99435.25;4982586;28;20084;-95
2024/01/05 06:26:19;;;;;;;5.55;0.90;;;;;;;6.90;100.00;99430.97;4978139;28;20523;-93
2024/01/05 06:28:45;;;;;;;3.15;0.80;;;;;;;6.91;100.00;99427.47;4975577;28;20535;-93
2024/01/05 06:31:11;;;;;;;2.72;0.70;;;;;;;6.92;100.00;99439.53;4989109;28;20047;-93
2024/01/05 06:33:36;;;;;;;2.70;0.70;;;;;;;6.92;100.00;99435.19;4973736;28;20088;-93
2024/01/05 06:36:01;;;;;;;1.92;0.50;;;;;;;6.96;100.00;99430.78;4971945;28;20050;-92
2024/01/05 06:38:27;;;;;;;1.88;0.52;;;;;;;6.96;100.00;99430.78;4973022;28;20061;-93
2024/01/05 06:40:52;;;;;;;1.13;0.40;;;;;;;6.97;100.00;99435.03;4961304;28;20038;-93
2024/01/05 06:43:17;;;;;;;0.30;0.30;;;;;;;7.00;100.00;99442.72;4963650;28;20491;-93
2024/01/05 06:45:43;;;;;;;1.45;0.40;;;;;;;6.99;98.81;99435.84;4960130;28;20061;-95
2024/01/05 06:48:08;;;;;;;0.80;0.40;;;;;;;7.00;98.25;99432.38;4959563;28;20027;-95
2024/01/05 06:50:34;;;;;;;1.00;0.40;;;;;;;7.00;98.83;99440.13;4960370;28;20077;-92
2024/01/05 06:52:59;;;;;;;1.48;0.40;;;;;;;7.01;98.51;99439.19;4966615;28;20105;-93
2024/01/05 06:55:24;;;;;;;2.25;0.40;;;;;;;7.03;97.26;99440.00;4955516;28;20038;-93
2024/01/05 06:57:50;;;;;;;3.85;0.60;;;;;;;7.06;95.97;99436.47;4971085;28;20073;-93
2024/01/05 07:00:15;;;;;;;2.13;0.57;;;;;;;7.07;95.72;99441.59;4970759;28;20031;-93
2024/01/05 07:02:41;;;;;;;0.90;0.35;;;;;;;7.13;94.51;99453.47;4974669;28;20043;-93
2024/01/05 07:05:07;;;;;;;1.70;0.40;;;;;;;7.13;94.04;99449.16;4965508;28;21026;-92
2024/01/05 07:07:32;;;;;;;1.27;0.40;;;;;;;7.17;91.47;99449.88;4957963;28;20070;-95
2024/01/05 07:09:58;;;;;;;0.85;0.30;;;;;;;7.18;90.48;99455.88;4967339;28;20484;-92
2024/01/05 07:12:23;;;;;;;0.95;0.40;;;;;;;7.17;90.23;99454.22;4972433;28;20035;-92
2024/01/05 07:14:49;;;;;;;1.13;0.32;;;;;;;7.20;88.36;99449.78;4957670;28;20034;-93
2024/01/05 07:17:14;;;;;;;0.20;0.20;;;;;;;7.20;87.06;99448.91;4974611;28;20082;-92
2024/01/05 07:19:40;;;;;;;0.80;0.20;;;;;;;7.18;86.67;99450.72;4976598;28;20046;-93
2024/01/05 07:22:06;;;;;;;0.32;0.30;;;;;;;7.11;86.79;99463.00;4957003;28;20042;-92
2024/01/05 07:24:33;;;;;;;1.08;0.30;;;;;;;7.12;86.37;99452.63;4955675;28;20034;-94
2024/01/05 07:26:59;;;;;;;0.45;0.20;;;;;;;7.13;84.96;99449.16;4972008;28;20145;-94
2024/01/05 07:29:24;;;;;;;0.57;0.30;;;;;;;7.09;85.98;99450.13;4954332;28;20117;-92
2024/01/05 07:31:49;;;;;;;0.47;0.20;;;;;;;7.04;86.17;99454.63;4971022;28;20137;-93
2024/01/05 07:34:15;;;;;;;0.98;0.20;;;;;;;6.98;87.16;99445.31;4996580;28;20128;-93
2024/01/05 07:36:42;;;;;;;0.20;0.20;;;;;;;7.01;86.95;99456.47;4992810;28;20057;-92
2024/01/05 07:39:10;;;;;;;1.60;0.30;;;;;;;6.98;87.33;99447.91;4974055;28;20030;-93
2024/01/05 07:41:36;;;;;;;0.70;0.40;;;;;;;6.96;86.73;99451.44;4991709;28;20038;-94
2024/01/05 07:44:01;;;;;;;0.70;0.40;;;;;;;6.94;87.26;99451.47;4978656;28;20033;-93
2024/01/05 07:46:27;;;;;;;0.77;0.38;;;;;;;6.91;88.06;99449.03;4970815;28;20110;-92
2024/01/05 07:48:53;;;;;;;0.80;0.45;;;;;;;6.89;88.34;99468.06;4991133;28;20042;-92
2024/01/05 07:51:21;;;;;;;2.30;0.40;;;;;;;6.89;88.23;99457.72;4993319;28;20029;-93
2024/01/05 07:53:48;;;;;;;0.70;0.30;;;;;;;6.86;88.53;99444.88;4996041;28;20561;-93
2024/01/05 07:56:14;;;;;;;0.70;0.28;;;;;;;6.83;88.79;99459.59;4989393;28;20474;-92
2024/01/05 07:58:39;;;;;;;0.30;0.30;;;;;;;6.94;87.43;99463.59;4976626;28;20033;-92
2024/01/05 08:01:05;;;;;;;2.08;0.30;;;;;;;6.87;87.98;99456.91;4996034;28;20026;-92
2024/01/05 08:03:31;;;;;;;0.85;0.30;;;;;;;6.84;88.37;99455.28;4992265;28;20034;-92
2024/01/05 08:05:57;;;;;;;0.20;0.20;;;;;;;6.78;89.29;99452.88;4974239;28;20030;-93
2024/01/05 08:08:22;;;;;;;1.17;0.30;;;;;;;6.80;89.01;99451.09;4999037;28;20057;-90
2024/01/05 08:10:47;;;;;;;0.98;0.35;;;;;;;6.74;90.19;99467.66;4994676;28;20018;-91
2024/01/05 08:13:13;;;;;;;1.45;0.25;;;;;;;6.79;90.03;99454.56;4992435;28;20091;-93
2024/01/05 08:15:38;;;;;;;0.70;0.30;;;;;;;6.69;91.38;99459.19;4972634;28;20044;-92
2024/01/05 08:18:04;;;;;;;0.90;0.30;;;;;;;6.62;92.43;99462.88;4991520;28;20022;-93
2024/01/05 08:20:29;;;;;;;2.05;0.40;;;;;;;6.64;91.41;99458.53;4974309;28;20393;-92
2024/01/05 08:22:54;;;;;;;1.75;0.40;;;;;;;6.57;92.51;99454.44;4992338;28;20483;-92
2024/01/05 08:25:20;;;;;;;1.35;0.30;;;;;;;6.53;93.16;99449.34;4971846;28;20487;-90
2024/01/05 08:27:45;;;;;;;1.35;0.40;;;;;;;6.52;92.78;99447.66;4997758;28;20029;-94
2024/01/05 08:30:12;;;;;;;1.08;0.30;;;;;;;6.47;93.26;99443.53;4996210;28;20034;-93
2024/01/05 08:32:38;;;;;;;0.95;0.30;;;;;;;6.46;93.38;99447.88;4982427;28;20046;-93
2024/01/05 08:35:06;;;;;;;1.08;0.30;;;;;;;6.45;93.59;99443.59;4977394;28;20514;-91
2024/01/05 08:37:31;;;;;;;0.65;0.30;;;;;;;6.43;93.55;99437.63;4996177;28;20022;-93
2024/01/05 08:39:57;;;;;;;0.90;0.40;;;;;;;6.37;94.42;99449.00;5000028;28;20025;-93
2024/01/05 08:42:22;;;;;;;0.50;0.30;;;;;;;6.38;94.15;99455.00;4974638;28;20100;-94
2024/01/05 08:44:50;;;;;;;1.58;0.40;;;;;;;6.32;95.03;99445.72;4992002;28;20038;-95
2024/01/05 08:47:16;;;;;;;0.65;0.38;;;;;;;6.29;95.54;99458.72;4977410;28;20027;-94
2024/01/05 08:49:41;;;;;;;0.47;0.40;;;;;;;6.28;96.56;99448.44;4997069;28;20048;-93
2024/01/05 08:52:19;;;;;;;1.05;0.50;;;;;;;6.25;97.14;99456.28;4975000;28;20121;-95
2024/01/05 08:54:45;;;;;;;2.40;0.38;;;;;;;6.28;97.18;99459.59;4998304;28;20394;-94
2024/01/05 08:57:11;;;;;;;1.77;0.40;;;;;;;6.27;97.59;99457.06;4980452;28;20034;-92
2024/01/05 08:59:38;;;;;;;0.77;0.40;;;;;;;6.23;97.62;99457.16;4979470;28;20018;-95
2024/01/05 09:02:05;;;;;;;0.57;0.40;;;;;;;6.22;98.06;99450.31;4980951;28;20360;-92
2024/01/05 09:04:31;;;;;;;2.08;0.50;;;;;;;6.23;97.87;99464.91;4992296;28;20041;-92
2024/01/05 09:06:58;;;;;;;0.45;0.30;;;;;;;6.21;98.10;99478.78;4974281;28;20548;-93
2024/01/05 09:09:23;;;;;;;2.83;0.40;;;;;;;6.27;97.95;99480.31;4996922;28;20037;-92
2024/01/05 09:11:49;;;;;;;0.30;0.30;;;;;;;6.21;98.64;99473.59;4990447;28;20018;-92
2024/01/05 09:14:14;;;;;;;0.88;0.30;;;;;;;6.18;99.18;99487.44;4969991;28;20172;-90
2024/01/05 09:16:39;;;;;;;1.30;0.40;;;;;;;6.07;99.80;99497.25;5004592;28;20026;-93
2024/01/05 09:19:05;;;;;;;1.30;0.38;;;;;;;6.05;99.75;99494.72;4975443;28;20113;-92
2024/01/05 09:21:30;;;;;;;1.17;0.40;;;;;;;6.01;99.74;99498.28;4993436;28;20113;-90
2024/01/05 09:23:56;;;;;;;0.63;0.38;;;;;;;5.96;99.59;99504.44;4993749;28;20033;-91
2024/01/05 09:26:22;;;;;;;0.22;0.22;;;;;;;5.87;100.00;99510.69;4980696;28;20032;-91
2024/01/05 09:28:50;;;;;;;0.65;0.30;;;;;;;5.86;100.00;99509.00;4978182;28;20046;-92
2024/01/05 09:31:19;;;;;;;0.63;0.25;;;;;;;5.76;100.00;99503.25;4999308;28;20406;-92
2024/01/05 09:33:45;;;;;;;0.20;0.20;;;;;;;5.69;100.00;99506.88;5000844;28;20042;-93
2024/01/05 09:36:10;;;;;;;0.52;0.30;;;;;;;5.68;100.00;99502.59;4979652;28;20025;-93
2024/01/05 09:38:36;;;;;;;1.25;0.35;;;;;;;5.66;100.00;99506.94;4979771;28;20110;-91
2024/01/05 09:41:02;;;;;;;0.30;0.30;;;;;;;5.58;100.00;99520.91;4980782;28;20109;-93
2024/01/05 09:43:27;;;;;;;0.52;0.32;;;;;;;5.50;100.00;99507.34;4996192;28;20054;-92
2024/01/05 09:45:55;;;;;;;0.57;0.40;;;;;;;5.48;100.00;99506.53;4982596;28;20076;-91
2024/01/05 09:48:28;;;;;;;0.45;0.32;;;;;;;5.44;100.00;99497.22;4982164;28;20121;-95
2024/01/05 09:50:56;;;;;;;0.75;0.30;;;;;;;5.45;100.00;99504.06;4983120;28;20089;-92
2024/01/05 09:53:22;;;;;;;1.20;0.40;;;;;;;5.45;100.00;99506.66;4996291;28;20026;-92
2024/01/05 09:55:49;;;;;;;0.63;0.40;;;;;;;5.49;100.00;99499.66;4989620;28;20027;-90
2024/01/05 09:58:17;;;;;;;1.00;0.40;;;;;;;5.49;100.00;99505.66;4995641;28;20017;-93
2024/01/05 10:00:47;;;;;;;0.80;0.40;;;;;;;5.47;100.00;99512.59;4998940;28;20030;-91
2024/01/05 10:03:21;;;;;;;1.65;0.47;;;;;;;5.51;100.00;99521.13;4980350;28;20037;-92
2024/01/05 10:05:49;;;;;;;1.00;0.50;;;;;;;5.52;100.00;99518.47;4983109;28;20026;-92
2024/01/05 10:08:14;;;;;;;0.77;0.40;;;;;;;5.51;100.00;99519.38;5001112;28;20026;-91
2024/01/05 10:10:47;;;;;;;1.25;0.47;;;;;;;5.54;100.00;99506.41;4977415;28;20027;-92
2024/01/05 10:13:13;;;;;;;0.55;0.40;;;;;;;5.58;100.00;99510.59;4978926;28;20029;-91
2024/01/05 10:16:02;;;;;;;0.73;0.50;;;;;;;5.62;100.00;99507.06;4980626;28;20474;-93
2024/01/05 10:18:29;;;;;;;1.15;0.60;;;;;;;5.64;100.00;99503.59;4991444;28;20081;-90
2024/01/05 10:20:57;;;;;;;1.20;0.70;;;;;;;5.65;100.00;99511.28;5003512;28;20014;-90
2024/01/05 10:23:24;;;;;;;1.10;0.60;;;;;;;5.69;100.00;99505.16;4996595;28;20030;-91
2024/01/05 10:25:51;;;;;;;1.30;0.70;;;;;;;5.72;100.00;99504.22;5004671;28;20022;-90
2024/01/05 10:28:29;;;;;;;1.60;0.80;;;;;;;5.71;100.00;99499.94;4999377;28;20034;-90
2024/01/05 10:31:11;;;;;;;1.58;0.90;;;;;;;5.80;100.00;99496.25;4980421;28;20113;-89
2024/01/05 10:33:52;;;;;;;3.03;0.85;;;;;;;5.91;100.00;99494.22;4999418;28;20391;-91
2024/01/05 10:36:22;;;;;;;1.10;0.60;;;;;;;6.03;100.00;99506.81;4981303;28;20026;-92
2024/01/05 10:38:48;;;;;;;2.30;0.73;;;;;;;6.10;100.00;99504.91;4981580;28;20053;-91
2024/01/05 10:41:16;;;;;;;2.45;0.80;;;;;;;6.14;100.00;99498.78;4991469;28;20119;-87
2024/01/05 10:43:42;;;;;;;1.85;0.73;;;;;;;6.19;100.00;99496.03;4995128;28;20026;-90
2024/01/05 10:46:12;;;;;;;2.25;0.80;;;;;;;6.23;100.00;99503.66;4976627;28;20027;-91
2024/01/05 10:48:41;;;;;;;1.13;0.70;;;;;;;6.20;99.81;99508.06;4975154;28;20033;-91
2024/01/05 10:51:06;;;;;;;2.42;0.90;;;;;;;6.18;99.41;99526.16;4994110;28;20076;-89
2024/01/05 10:53:35;;;;;;;1.15;0.70;;;;;;;6.17;98.94;99508.97;4994022;28;20112;-91
2024/01/05 10:56:02;;;;;;;0.93;0.68;;;;;;;6.18;98.55;99515.00;4990276;28;20030;-90
2024/01/05 10:58:27;;;;;;;1.58;0.65;;;;;;;6.16;98.44;99527.13;4994810;28;20156;-91
2024/01/05 11:00:57;;;;;;;0.93;0.60;;;;;;;6.17;97.80;99523.66;4993784;28;20493;-91
2024/01/05 11:03:25;;;;;;;1.73;0.70;;;;;;;6.13;97.63;99507.41;5001149;28;20542;-94
2024/01/05 11:05:51;;;;;;;0.85;0.55;;;;;;;6.16;97.60;99512.44;4996518;28;20030;-91
2024/01/05 11:08:39;;;;;;;1.70;0.98;;;;;;;6.16;97.04;99511.63;4974693;28;20034;-91
2024/01/05 11:11:23;;;;;;;1.95;0.80;;;;;;;6.14;97.19;99513.41;4972886;28;20642;-93
2024/01/05 11:14:18;;;;;;;1.17;0.75;;;;;;;6.13;97.07;99524.63;4972950;28;20041;-95
2024/01/05 11:16:56;;;;;;;1.20;0.70;;;;;;;6.12;96.74;99515.19;4967953;28;20042;-91
2024/01/05 11:19:47;;;;;;;3.75;0.80;;;;;;;6.11;96.68;99513.47;4974497;28;20046;-92
2024/01/05 11:22:18;;;;;;;0.85;0.60;;;;;;;6.13;96.55;99517.72;4976859;28;20022;-91
2024/01/05 11:24:44;;;;;;;2.88;0.68;;;;;;;6.17;95.72;99510.72;4975084;28;20052;-92
2024/01/05 11:27:32;;;;;;;1.90;0.60;;;;;;;6.11;96.41;99521.22;4995134;28;20109;-93
2024/01/05 11:29:59;;;;;;;1.83;0.60;;;;;;;6.12;96.38;99507.44;4992322;28;20030;-91
2024/01/05 11:32:46;;;;;;;0.80;0.60;;;;;;;6.11;96.40;99509.19;4976641;28;20054;-91
2024/01/05 11:35:19;;;;;;;1.63;0.70;;;;;;;6.10;96.53;99520.41;4970812;28;20483;-90